Portada
METAR-TAF:

METAR-TAF

Aeroports :

Iekaterinburg, Rússia

latitud: 56-50N, longitud: 060-38E, altitud: 237 m

Observació

L'informe es va fer fa 31 minuts, a les 11:00 UTC
Vent 6 kt del Sud-Est
Temperatura -7°C
Humitat 57%
Pressió 1014 hPa
Visibilitat 10 km o més
sense núvols per sota de 1500 mi sense presència de cumulonimbus.

METAR: USSS 201100Z 14003MPS CAVOK M07/M14 Q1014 R08L/190050 NOSIG RMK QFE741/0988

Hora: 16:31 (11:31 UTC)

Pronòstic

L'informe es va fer fa 3 hores i 33 minuts, a les 07:58 UTC
Pronòstic vàlid del 20 a les 09 UTC al 21 a les 09 UTC
Vent 8 kt del Sud/Sud-Est
Visibilitat 10 km o més
Cel ennuvolat a una alçada de 2000 ft
Evolucionant progressivament
l' 20 a les 12 UTC al 20 a les 14 UTC
Visibilitat: 5000 m
Cel ennuvolat a una alçada de 1100 ft
neu, boirina

TAF: USSS 200758Z 2009/2109 15004MPS 9999 BKN020 BECMG 2012/2014 5000 -SN BR BKN011

Observacions i pronòstics meteorològics de més de 4000 aeroports (METAR i TAF).

Les estacions disponibles són els punts grocs i vermells al mapa.

Posi el ratolí al punt desitjat per veure el nom de l'estació.

Feu clic per veure les observacions i els pronòstics meteorològics.

Per canviar el mapa: feu clic els botons verds amb una creu de color negre per apropar; al botó verd amb un guió per allunyar la imatge; o en les fletxes verdes per a mapes adjacents.


METAR-TAF: